sensor_id;sensor_type;location;lat;lon;timestamp;temperature;humidity
10192;DHT22;17580;50.850;4.504;2023-01-25T00:01:52;2.70;85.50
10192;DHT22;17580;50.850;4.504;2023-01-25T00:04:19;2.60;86.00
10192;DHT22;17580;50.850;4.504;2023-01-25T00:06:46;2.60;86.00
10192;DHT22;17580;50.850;4.504;2023-01-25T00:09:16;2.60;84.80
10192;DHT22;17580;50.850;4.504;2023-01-25T00:11:43;2.60;86.00
10192;DHT22;17580;50.850;4.504;2023-01-25T00:14:11;2.70;86.00
10192;DHT22;17580;50.850;4.504;2023-01-25T00:16:39;2.60;84.90
10192;DHT22;17580;50.850;4.504;2023-01-25T00:19:07;2.60;84.30
10192;DHT22;17580;50.850;4.504;2023-01-25T00:21:35;2.70;85.20
10192;DHT22;17580;50.850;4.504;2023-01-25T00:24:03;2.60;85.20
10192;DHT22;17580;50.850;4.504;2023-01-25T00:26:32;2.60;84.60
10192;DHT22;17580;50.850;4.504;2023-01-25T00:29:00;2.50;86.30
10192;DHT22;17580;50.850;4.504;2023-01-25T00:31:35;2.50;86.80
10192;DHT22;17580;50.850;4.504;2023-01-25T00:34:19;2.60;84.90
10192;DHT22;17580;50.850;4.504;2023-01-25T00:37:01;2.60;84.00
10192;DHT22;17580;50.850;4.504;2023-01-25T00:39:28;2.60;84.20
10192;DHT22;17580;50.850;4.504;2023-01-25T00:41:57;2.50;84.70
10192;DHT22;17580;50.850;4.504;2023-01-25T00:44:24;2.50;84.80
10192;DHT22;17580;50.850;4.504;2023-01-25T00:46:51;2.50;83.70
10192;DHT22;17580;50.850;4.504;2023-01-25T00:49:20;2.40;84.60
10192;DHT22;17580;50.850;4.504;2023-01-25T00:51:47;2.50;84.20
10192;DHT22;17580;50.850;4.504;2023-01-25T00:54:14;2.50;84.70
10192;DHT22;17580;50.850;4.504;2023-01-25T00:56:42;2.50;83.80
10192;DHT22;17580;50.850;4.504;2023-01-25T00:59:10;2.40;85.00
10192;DHT22;17580;50.850;4.504;2023-01-25T01:01:38;2.40;86.10
10192;DHT22;17580;50.850;4.504;2023-01-25T01:04:06;2.40;86.10
10192;DHT22;17580;50.850;4.504;2023-01-25T01:06:34;2.50;85.40
10192;DHT22;17580;50.850;4.504;2023-01-25T01:09:02;2.60;84.80
10192;DHT22;17580;50.850;4.504;2023-01-25T01:11:29;2.60;85.10
10192;DHT22;17580;50.850;4.504;2023-01-25T01:13:57;2.60;83.60
10192;DHT22;17580;50.850;4.504;2023-01-25T01:16:26;2.50;83.50
10192;DHT22;17580;50.850;4.504;2023-01-25T01:18:53;2.40;84.40
10192;DHT22;17580;50.850;4.504;2023-01-25T01:21:20;2.40;85.70
10192;DHT22;17580;50.850;4.504;2023-01-25T01:23:47;2.40;85.80
10192;DHT22;17580;50.850;4.504;2023-01-25T01:26:15;2.40;85.30
10192;DHT22;17580;50.850;4.504;2023-01-25T01:28:44;2.30;85.60
10192;DHT22;17580;50.850;4.504;2023-01-25T01:31:13;2.30;84.90
10192;DHT22;17580;50.850;4.504;2023-01-25T01:33:42;2.40;85.80
10192;DHT22;17580;50.850;4.504;2023-01-25T01:36:11;2.30;85.60
10192;DHT22;17580;50.850;4.504;2023-01-25T01:38:39;2.30;85.50
10192;DHT22;17580;50.850;4.504;2023-01-25T01:41:06;2.30;86.10
10192;DHT22;17580;50.850;4.504;2023-01-25T01:43:33;2.30;85.20
10192;DHT22;17580;50.850;4.504;2023-01-25T01:46:01;2.30;84.00
10192;DHT22;17580;50.850;4.504;2023-01-25T01:48:35;2.20;85.40
10192;DHT22;17580;50.850;4.504;2023-01-25T01:51:07;2.20;86.30
10192;DHT22;17580;50.850;4.504;2023-01-25T01:53:37;2.20;86.50
10192;DHT22;17580;50.850;4.504;2023-01-25T01:56:08;2.20;85.70
10192;DHT22;17580;50.850;4.504;2023-01-25T01:58:36;2.20;86.20
10192;DHT22;17580;50.850;4.504;2023-01-25T02:01:04;2.30;85.30
10192;DHT22;17580;50.850;4.504;2023-01-25T02:03:32;2.20;85.10
10192;DHT22;17580;50.850;4.504;2023-01-25T02:06:03;2.20;85.70
10192;DHT22;17580;50.850;4.504;2023-01-25T02:08:33;2.30;85.20
10192;DHT22;17580;50.850;4.504;2023-01-25T02:11:02;2.20;85.20
10192;DHT22;17580;50.850;4.504;2023-01-25T02:13:30;2.30;86.60
10192;DHT22;17580;50.850;4.504;2023-01-25T02:15:58;2.20;84.90
10192;DHT22;17580;50.850;4.504;2023-01-25T02:18:25;2.10;85.70
10192;DHT22;17580;50.850;4.504;2023-01-25T02:20:54;2.20;86.10
10192;DHT22;17580;50.850;4.504;2023-01-25T02:23:26;2.20;86.20
10192;DHT22;17580;50.850;4.504;2023-01-25T02:25:59;2.20;85.80
10192;DHT22;17580;50.850;4.504;2023-01-25T02:28:29;2.20;86.30
10192;DHT22;17580;50.850;4.504;2023-01-25T02:30:57;2.30;85.90
10192;DHT22;17580;50.850;4.504;2023-01-25T02:33:25;2.20;85.60
10192;DHT22;17580;50.850;4.504;2023-01-25T02:35:57;2.10;86.40
10192;DHT22;17580;50.850;4.504;2023-01-25T02:38:26;2.10;85.70
10192;DHT22;17580;50.850;4.504;2023-01-25T02:41:01;2.20;86.60
10192;DHT22;17580;50.850;4.504;2023-01-25T02:43:31;2.10;87.30
10192;DHT22;17580;50.850;4.504;2023-01-25T02:46:04;2.20;86.20
10192;DHT22;17580;50.850;4.504;2023-01-25T02:48:35;2.20;85.90
10192;DHT22;17580;50.850;4.504;2023-01-25T02:51:05;2.20;85.90
10192;DHT22;17580;50.850;4.504;2023-01-25T02:53:32;2.20;85.70
10192;DHT22;17580;50.850;4.504;2023-01-25T02:56:01;2.20;85.20
10192;DHT22;17580;50.850;4.504;2023-01-25T02:58:28;2.10;84.30
10192;DHT22;17580;50.850;4.504;2023-01-25T03:00:55;2.00;84.60
10192;DHT22;17580;50.850;4.504;2023-01-25T03:03:23;2.00;85.10
10192;DHT22;17580;50.850;4.504;2023-01-25T03:05:50;2.10;84.90
10192;DHT22;17580;50.850;4.504;2023-01-25T03:08:17;2.10;85.60
10192;DHT22;17580;50.850;4.504;2023-01-25T03:10:44;2.00;86.10
10192;DHT22;17580;50.850;4.504;2023-01-25T03:13:12;2.10;86.00
10192;DHT22;17580;50.850;4.504;2023-01-25T03:15:39;2.10;86.40
10192;DHT22;17580;50.850;4.504;2023-01-25T03:18:06;2.10;85.30
10192;DHT22;17580;50.850;4.504;2023-01-25T03:20:33;2.10;86.30
10192;DHT22;17580;50.850;4.504;2023-01-25T03:23:00;2.20;84.90
10192;DHT22;17580;50.850;4.504;2023-01-25T03:25:27;2.10;85.40
10192;DHT22;17580;50.850;4.504;2023-01-25T03:27:54;2.10;84.70
10192;DHT22;17580;50.850;4.504;2023-01-25T03:30:23;2.10;84.40
10192;DHT22;17580;50.850;4.504;2023-01-25T03:32:50;2.10;84.00
10192;DHT22;17580;50.850;4.504;2023-01-25T03:35:17;2.20;84.80
10192;DHT22;17580;50.850;4.504;2023-01-25T03:37:44;2.10;83.40
10192;DHT22;17580;50.850;4.504;2023-01-25T03:40:12;2.00;84.00
10192;DHT22;17580;50.850;4.504;2023-01-25T03:42:39;2.10;84.90
10192;DHT22;17580;50.850;4.504;2023-01-25T03:45:06;2.10;83.90
10192;DHT22;17580;50.850;4.504;2023-01-25T03:47:35;2.10;83.80
10192;DHT22;17580;50.850;4.504;2023-01-25T03:50:02;2.20;85.10
10192;DHT22;17580;50.850;4.504;2023-01-25T03:53:50;2.20;83.00
10192;DHT22;17580;50.850;4.504;2023-01-25T03:55:54;2.10;84.70
10192;DHT22;17580;50.850;4.504;2023-01-25T03:58:21;2.00;85.10
10192;DHT22;17580;50.850;4.504;2023-01-25T04:00:48;2.10;84.40
10192;DHT22;17580;50.850;4.504;2023-01-25T04:03:17;2.00;83.00
10192;DHT22;17580;50.850;4.504;2023-01-25T04:05:46;2.10;84.40
10192;DHT22;17580;50.850;4.504;2023-01-25T04:08:13;2.10;83.80
10192;DHT22;17580;50.850;4.504;2023-01-25T04:10:40;2.00;84.50
10192;DHT22;17580;50.850;4.504;2023-01-25T04:13:07;2.00;84.20
10192;DHT22;17580;50.850;4.504;2023-01-25T04:15:34;1.90;84.00
10192;DHT22;17580;50.850;4.504;2023-01-25T04:18:01;2.00;85.40
10192;DHT22;17580;50.850;4.504;2023-01-25T04:20:30;2.00;84.80
10192;DHT22;17580;50.850;4.504;2023-01-25T04:22:57;2.00;83.50
10192;DHT22;17580;50.850;4.504;2023-01-25T04:25:24;2.00;83.80
10192;DHT22;17580;50.850;4.504;2023-01-25T04:27:51;2.00;83.70
10192;DHT22;17580;50.850;4.504;2023-01-25T04:30:18;1.90;84.20
10192;DHT22;17580;50.850;4.504;2023-01-25T04:32:45;1.90;85.20
10192;DHT22;17580;50.850;4.504;2023-01-25T04:35:12;2.00;84.40
10192;DHT22;17580;50.850;4.504;2023-01-25T04:37:40;2.00;85.30
10192;DHT22;17580;50.850;4.504;2023-01-25T04:40:09;2.00;84.60
10192;DHT22;17580;50.850;4.504;2023-01-25T04:42:36;2.10;83.40
10192;DHT22;17580;50.850;4.504;2023-01-25T04:45:03;1.90;84.00
10192;DHT22;17580;50.850;4.504;2023-01-25T04:47:30;1.90;85.10
10192;DHT22;17580;50.850;4.504;2023-01-25T04:49:57;1.80;85.70
10192;DHT22;17580;50.850;4.504;2023-01-25T04:52:24;1.80;85.90
10192;DHT22;17580;50.850;4.504;2023-01-25T04:54:53;1.80;85.30
10192;DHT22;17580;50.850;4.504;2023-01-25T04:57:20;1.80;86.10
10192;DHT22;17580;50.850;4.504;2023-01-25T04:59:47;1.80;85.80
10192;DHT22;17580;50.850;4.504;2023-01-25T05:02:13;1.80;85.70
10192;DHT22;17580;50.850;4.504;2023-01-25T05:04:40;1.80;84.20
10192;DHT22;17580;50.850;4.504;2023-01-25T05:07:07;1.90;84.60
10192;DHT22;17580;50.850;4.504;2023-01-25T05:09:34;1.90;85.30
10192;DHT22;17580;50.850;4.504;2023-01-25T05:12:03;1.90;83.80
10192;DHT22;17580;50.850;4.504;2023-01-25T05:14:36;1.90;84.30
10192;DHT22;17580;50.850;4.504;2023-01-25T05:17:03;1.90;84.30
10192;DHT22;17580;50.850;4.504;2023-01-25T05:19:30;1.90;83.50
10192;DHT22;17580;50.850;4.504;2023-01-25T05:21:57;1.90;83.90
10192;DHT22;17580;50.850;4.504;2023-01-25T05:24:24;1.70;83.30
10192;DHT22;17580;50.850;4.504;2023-01-25T05:26:52;1.70;85.30
10192;DHT22;17580;50.850;4.504;2023-01-25T05:29:31;1.80;85.40
10192;DHT22;17580;50.850;4.504;2023-01-25T05:32:00;1.90;85.00
10192;DHT22;17580;50.850;4.504;2023-01-25T05:34:27;1.90;86.10
10192;DHT22;17580;50.850;4.504;2023-01-25T05:36:55;2.00;86.10
10192;DHT22;17580;50.850;4.504;2023-01-25T05:39:22;1.90;84.90
10192;DHT22;17580;50.850;4.504;2023-01-25T05:41:49;1.90;83.60
10192;DHT22;17580;50.850;4.504;2023-01-25T05:44:17;1.90;83.70
10192;DHT22;17580;50.850;4.504;2023-01-25T05:46:45;1.90;84.00
10192;DHT22;17580;50.850;4.504;2023-01-25T05:49:12;1.70;85.00
10192;DHT22;17580;50.850;4.504;2023-01-25T05:51:40;1.70;84.30
10192;DHT22;17580;50.850;4.504;2023-01-25T05:54:10;1.70;84.10
10192;DHT22;17580;50.850;4.504;2023-01-25T05:56:38;1.70;84.10
10192;DHT22;17580;50.850;4.504;2023-01-25T05:59:05;1.70;84.20
10192;DHT22;17580;50.850;4.504;2023-01-25T06:01:32;1.70;84.30
10192;DHT22;17580;50.850;4.504;2023-01-25T06:04:00;1.50;84.80
10192;DHT22;17580;50.850;4.504;2023-01-25T06:06:27;1.50;86.00
10192;DHT22;17580;50.850;4.504;2023-01-25T06:08:54;1.50;85.80
10192;DHT22;17580;50.850;4.504;2023-01-25T06:11:23;1.60;85.80
10192;DHT22;17580;50.850;4.504;2023-01-25T06:13:50;1.60;85.90
10192;DHT22;17580;50.850;4.504;2023-01-25T06:16:17;1.70;86.50
10192;DHT22;17580;50.850;4.504;2023-01-25T06:18:45;1.70;86.70
10192;DHT22;17580;50.850;4.504;2023-01-25T06:21:13;1.70;85.70
10192;DHT22;17580;50.850;4.504;2023-01-25T06:23:40;1.70;86.90
10192;DHT22;17580;50.850;4.504;2023-01-25T06:26:11;1.70;85.50
10192;DHT22;17580;50.850;4.504;2023-01-25T06:28:38;1.70;86.40
10192;DHT22;17580;50.850;4.504;2023-01-25T06:31:07;1.70;85.70
10192;DHT22;17580;50.850;4.504;2023-01-25T06:33:35;1.60;84.80
10192;DHT22;17580;50.850;4.504;2023-01-25T06:36:04;1.60;85.30
10192;DHT22;17580;50.850;4.504;2023-01-25T06:38:33;1.50;85.20
10192;DHT22;17580;50.850;4.504;2023-01-25T06:41:01;1.60;85.60
10192;DHT22;17580;50.850;4.504;2023-01-25T06:43:29;1.60;86.50
10192;DHT22;17580;50.850;4.504;2023-01-25T06:45:57;1.60;86.20
10192;DHT22;17580;50.850;4.504;2023-01-25T06:48:25;1.60;85.20
10192;DHT22;17580;50.850;4.504;2023-01-25T06:50:55;1.80;84.70
10192;DHT22;17580;50.850;4.504;2023-01-25T06:53:24;1.70;84.60
10192;DHT22;17580;50.850;4.504;2023-01-25T06:56:00;1.60;83.80
10192;DHT22;17580;50.850;4.504;2023-01-25T06:58:28;1.50;85.40
10192;DHT22;17580;50.850;4.504;2023-01-25T07:01:00;1.50;86.20
10192;DHT22;17580;50.850;4.504;2023-01-25T07:03:27;1.50;86.20
10192;DHT22;17580;50.850;4.504;2023-01-25T07:05:58;1.50;86.60
10192;DHT22;17580;50.850;4.504;2023-01-25T07:08:25;1.60;84.80
10192;DHT22;17580;50.850;4.504;2023-01-25T07:10:53;1.60;83.60
10192;DHT22;17580;50.850;4.504;2023-01-25T07:13:22;1.70;84.90
10192;DHT22;17580;50.850;4.504;2023-01-25T07:15:54;1.60;86.50
10192;DHT22;17580;50.850;4.504;2023-01-25T07:18:21;1.50;85.70
10192;DHT22;17580;50.850;4.504;2023-01-25T07:20:48;1.50;86.30
10192;DHT22;17580;50.850;4.504;2023-01-25T07:23:16;1.50;86.60
10192;DHT22;17580;50.850;4.504;2023-01-25T07:25:44;1.40;87.60
10192;DHT22;17580;50.850;4.504;2023-01-25T07:28:11;1.30;86.40
10192;DHT22;17580;50.850;4.504;2023-01-25T07:30:40;1.40;86.90
10192;DHT22;17580;50.850;4.504;2023-01-25T07:33:07;1.40;86.00
10192;DHT22;17580;50.850;4.504;2023-01-25T07:35:34;1.30;86.60
10192;DHT22;17580;50.850;4.504;2023-01-25T07:38:01;1.30;87.50
10192;DHT22;17580;50.850;4.504;2023-01-25T07:40:28;1.30;88.80
10192;DHT22;17580;50.850;4.504;2023-01-25T07:42:55;1.30;86.40
10192;DHT22;17580;50.850;4.504;2023-01-25T07:45:23;1.30;88.20
10192;DHT22;17580;50.850;4.504;2023-01-25T07:47:56;1.30;88.20
10192;DHT22;17580;50.850;4.504;2023-01-25T07:50:24;1.20;87.40
10192;DHT22;17580;50.850;4.504;2023-01-25T07:52:51;1.10;86.60
10192;DHT22;17580;50.850;4.504;2023-01-25T07:55:18;1.20;87.90
10192;DHT22;17580;50.850;4.504;2023-01-25T07:57:45;1.20;87.70
10192;DHT22;17580;50.850;4.504;2023-01-25T08:00:13;1.30;88.70
10192;DHT22;17580;50.850;4.504;2023-01-25T08:02:40;1.20;86.00
10192;DHT22;17580;50.850;4.504;2023-01-25T08:05:09;1.00;86.60
10192;DHT22;17580;50.850;4.504;2023-01-25T08:07:36;1.10;88.40
10192;DHT22;17580;50.850;4.504;2023-01-25T08:10:04;1.10;87.40
10192;DHT22;17580;50.850;4.504;2023-01-25T08:12:32;1.10;87.60
10192;DHT22;17580;50.850;4.504;2023-01-25T08:14:59;1.10;88.40
10192;DHT22;17580;50.850;4.504;2023-01-25T08:17:26;1.20;87.20
10192;DHT22;17580;50.850;4.504;2023-01-25T08:19:57;1.20;87.30
10192;DHT22;17580;50.850;4.504;2023-01-25T08:22:26;1.10;87.20
10192;DHT22;17580;50.850;4.504;2023-01-25T08:24:53;1.00;87.70
10192;DHT22;17580;50.850;4.504;2023-01-25T08:27:21;1.10;87.90
10192;DHT22;17580;50.850;4.504;2023-01-25T08:29:48;1.10;87.20
10192;DHT22;17580;50.850;4.504;2023-01-25T08:32:18;1.30;86.40
10192;DHT22;17580;50.850;4.504;2023-01-25T08:34:45;1.40;87.30
10192;DHT22;17580;50.850;4.504;2023-01-25T08:37:12;1.50;86.40
10192;DHT22;17580;50.850;4.504;2023-01-25T08:39:41;1.40;85.70
10192;DHT22;17580;50.850;4.504;2023-01-25T08:42:08;1.30;86.50
10192;DHT22;17580;50.850;4.504;2023-01-25T08:44:35;1.30;87.30
10192;DHT22;17580;50.850;4.504;2023-01-25T08:47:02;1.40;86.80
10192;DHT22;17580;50.850;4.504;2023-01-25T08:49:31;1.40;85.90
10192;DHT22;17580;50.850;4.504;2023-01-25T08:51:59;1.50;86.70
10192;DHT22;17580;50.850;4.504;2023-01-25T08:54:27;1.40;85.40
10192;DHT22;17580;50.850;4.504;2023-01-25T08:56:55;1.50;86.30
10192;DHT22;17580;50.850;4.504;2023-01-25T08:59:22;1.60;84.50
10192;DHT22;17580;50.850;4.504;2023-01-25T09:01:49;1.60;85.00
10192;DHT22;17580;50.850;4.504;2023-01-25T09:04:16;1.60;84.40
10192;DHT22;17580;50.850;4.504;2023-01-25T09:06:43;1.30;86.40
10192;DHT22;17580;50.850;4.504;2023-01-25T09:09:11;1.30;86.90
10192;DHT22;17580;50.850;4.504;2023-01-25T09:11:38;1.30;86.90
10192;DHT22;17580;50.850;4.504;2023-01-25T09:14:07;1.40;87.00
10192;DHT22;17580;50.850;4.504;2023-01-25T09:16:34;1.40;86.40
10192;DHT22;17580;50.850;4.504;2023-01-25T09:19:03;1.50;87.60
10192;DHT22;17580;50.850;4.504;2023-01-25T09:21:31;1.70;86.30
10192;DHT22;17580;50.850;4.504;2023-01-25T09:23:58;1.70;85.10
10192;DHT22;17580;50.850;4.504;2023-01-25T09:26:25;1.60;83.60
10192;DHT22;17580;50.850;4.504;2023-01-25T09:28:53;1.50;84.10
10192;DHT22;17580;50.850;4.504;2023-01-25T09:31:22;1.60;84.40
10192;DHT22;17580;50.850;4.504;2023-01-25T09:33:49;1.40;84.30
10192;DHT22;17580;50.850;4.504;2023-01-25T09:36:17;1.40;85.70
10192;DHT22;17580;50.850;4.504;2023-01-25T09:38:44;1.40;86.40
10192;DHT22;17580;50.850;4.504;2023-01-25T09:41:24;1.50;86.80
10192;DHT22;17580;50.850;4.504;2023-01-25T09:44:08;1.60;87.20
10192;DHT22;17580;50.850;4.504;2023-01-25T09:46:42;1.70;84.80
10192;DHT22;17580;50.850;4.504;2023-01-25T09:49:21;1.60;84.70
10192;DHT22;17580;50.850;4.504;2023-01-25T09:52:00;1.60;84.60
10192;DHT22;17580;50.850;4.504;2023-01-25T09:54:30;1.70;85.20
10192;DHT22;17580;50.850;4.504;2023-01-25T09:56:59;1.70;83.90
10192;DHT22;17580;50.850;4.504;2023-01-25T09:59:28;1.70;83.40
10192;DHT22;17580;50.850;4.504;2023-01-25T10:02:00;1.60;85.00
10192;DHT22;17580;50.850;4.504;2023-01-25T10:04:29;1.50;85.00
10192;DHT22;17580;50.850;4.504;2023-01-25T10:07:10;1.60;84.60
10192;DHT22;17580;50.850;4.504;2023-01-25T10:09:45;1.50;85.70
10192;DHT22;17580;50.850;4.504;2023-01-25T10:12:18;1.50;84.70
10192;DHT22;17580;50.850;4.504;2023-01-25T10:14:46;1.60;85.50
10192;DHT22;17580;50.850;4.504;2023-01-25T10:17:22;1.70;84.30
10192;DHT22;17580;50.850;4.504;2023-01-25T10:20:01;1.60;85.60
10192;DHT22;17580;50.850;4.504;2023-01-25T10:22:35;1.60;87.00
10192;DHT22;17580;50.850;4.504;2023-01-25T10:25:18;1.60;85.80
10192;DHT22;17580;50.850;4.504;2023-01-25T10:28:01;1.50;85.50
10192;DHT22;17580;50.850;4.504;2023-01-25T10:30:36;1.50;86.20
10192;DHT22;17580;50.850;4.504;2023-01-25T10:33:12;1.50;87.30
10192;DHT22;17580;50.850;4.504;2023-01-25T10:35:43;1.60;86.20
10192;DHT22;17580;50.850;4.504;2023-01-25T10:38:14;1.50;86.10
10192;DHT22;17580;50.850;4.504;2023-01-25T10:40:47;1.50;85.90
10192;DHT22;17580;50.850;4.504;2023-01-25T10:43:17;1.50;84.70
10192;DHT22;17580;50.850;4.504;2023-01-25T10:45:46;1.70;85.40
10192;DHT22;17580;50.850;4.504;2023-01-25T10:48:18;1.70;83.70
10192;DHT22;17580;50.850;4.504;2023-01-25T10:50:51;1.60;84.30
10192;DHT22;17580;50.850;4.504;2023-01-25T10:53:27;1.80;84.10
10192;DHT22;17580;50.850;4.504;2023-01-25T10:56:00;1.70;82.30
10192;DHT22;17580;50.850;4.504;2023-01-25T10:58:30;1.70;83.90
10192;DHT22;17580;50.850;4.504;2023-01-25T11:00:57;1.60;83.80
10192;DHT22;17580;50.850;4.504;2023-01-25T11:03:33;1.70;84.50
10192;DHT22;17580;50.850;4.504;2023-01-25T11:06:00;1.80;85.90
10192;DHT22;17580;50.850;4.504;2023-01-25T11:08:33;1.80;84.80
10192;DHT22;17580;50.850;4.504;2023-01-25T11:11:16;1.90;84.60
10192;DHT22;17580;50.850;4.504;2023-01-25T11:13:47;1.80;84.40
10192;DHT22;17580;50.850;4.504;2023-01-25T11:16:24;1.70;84.20
10192;DHT22;17580;50.850;4.504;2023-01-25T11:18:55;1.70;84.60
10192;DHT22;17580;50.850;4.504;2023-01-25T11:21:25;1.70;84.60
10192;DHT22;17580;50.850;4.504;2023-01-25T11:24:00;1.70;85.60
10192;DHT22;17580;50.850;4.504;2023-01-25T11:26:28;1.90;84.40
10192;DHT22;17580;50.850;4.504;2023-01-25T11:29:10;1.80;82.60
10192;DHT22;17580;50.850;4.504;2023-01-25T11:31:37;1.80;82.80
10192;DHT22;17580;50.850;4.504;2023-01-25T11:34:09;1.80;83.30
10192;DHT22;17580;50.850;4.504;2023-01-25T11:37:05;1.90;83.30
10192;DHT22;17580;50.850;4.504;2023-01-25T11:39:53;1.90;84.10
10192;DHT22;17580;50.850;4.504;2023-01-25T11:42:29;2.00;82.20
10192;DHT22;17580;50.850;4.504;2023-01-25T11:45:41;1.80;82.60
10192;DHT22;17580;50.850;4.504;2023-01-25T11:48:23;1.80;83.10
10192;DHT22;17580;50.850;4.504;2023-01-25T11:51:01;2.00;83.40
10192;DHT22;17580;50.850;4.504;2023-01-25T11:53:53;1.90;84.10
10192;DHT22;17580;50.850;4.504;2023-01-25T11:56:28;2.00;84.20
10192;DHT22;17580;50.850;4.504;2023-01-25T11:59:08;2.10;82.30
10192;DHT22;17580;50.850;4.504;2023-01-25T12:01:56;2.10;82.50
10192;DHT22;17580;50.850;4.504;2023-01-25T12:07:29;1.80;82.60
10192;DHT22;17580;50.850;4.504;2023-01-25T12:10:03;1.80;83.10
10192;DHT22;17580;50.850;4.504;2023-01-25T12:12:43;2.00;82.30
10192;DHT22;17580;50.850;4.504;2023-01-25T12:15:35;1.90;82.70
10192;DHT22;17580;50.850;4.504;2023-01-25T12:18:33;1.90;82.50
10192;DHT22;17580;50.850;4.504;2023-01-25T12:21:09;2.00;82.10
10192;DHT22;17580;50.850;4.504;2023-01-25T12:23:55;1.90;81.50
10192;DHT22;17580;50.850;4.504;2023-01-25T12:26:27;1.90;82.70
10192;DHT22;17580;50.850;4.504;2023-01-25T12:29:01;1.90;83.00
10192;DHT22;17580;50.850;4.504;2023-01-25T12:31:35;2.00;82.90
10192;DHT22;17580;50.850;4.504;2023-01-25T12:34:09;2.00;82.50
10192;DHT22;17580;50.850;4.504;2023-01-25T12:36:42;2.00;82.50
10192;DHT22;17580;50.850;4.504;2023-01-25T12:39:12;2.10;81.50
10192;DHT22;17580;50.850;4.504;2023-01-25T12:41:43;2.10;82.80
10192;DHT22;17580;50.850;4.504;2023-01-25T12:44:17;2.00;82.60
10192;DHT22;17580;50.850;4.504;2023-01-25T12:46:51;2.00;82.90
10192;DHT22;17580;50.850;4.504;2023-01-25T12:49:27;2.00;82.50
10192;DHT22;17580;50.850;4.504;2023-01-25T12:51:59;1.90;83.00
10192;DHT22;17580;50.850;4.504;2023-01-25T12:54:31;2.10;81.60
10192;DHT22;17580;50.850;4.504;2023-01-25T12:57:07;2.00;81.80
10192;DHT22;17580;50.850;4.504;2023-01-25T12:59:45;2.10;81.90
10192;DHT22;17580;50.850;4.504;2023-01-25T13:02:25;2.10;82.70
10192;DHT22;17580;50.850;4.504;2023-01-25T13:05:00;2.20;81.80
10192;DHT22;17580;50.850;4.504;2023-01-25T13:07:34;2.20;80.90
10192;DHT22;17580;50.850;4.504;2023-01-25T13:10:11;2.30;80.60
10192;DHT22;17580;50.850;4.504;2023-01-25T13:12:58;2.30;79.80
10192;DHT22;17580;50.850;4.504;2023-01-25T13:15:38;2.40;80.90
10192;DHT22;17580;50.850;4.504;2023-01-25T13:18:35;2.40;79.10
10192;DHT22;17580;50.850;4.504;2023-01-25T13:21:03;2.30;79.60
10192;DHT22;17580;50.850;4.504;2023-01-25T13:23:34;2.40;79.50
10192;DHT22;17580;50.850;4.504;2023-01-25T13:35:43;2.30;81.30
10192;DHT22;17580;50.850;4.504;2023-01-25T13:38:31;2.40;80.90
10192;DHT22;17580;50.850;4.504;2023-01-25T13:41:05;2.30;80.40
10192;DHT22;17580;50.850;4.504;2023-01-25T13:43:37;2.30;80.20
10192;DHT22;17580;50.850;4.504;2023-01-25T13:46:07;2.40;80.10
10192;DHT22;17580;50.850;4.504;2023-01-25T13:48:41;2.50;80.60
10192;DHT22;17580;50.850;4.504;2023-01-25T13:51:13;2.40;79.10
10192;DHT22;17580;50.850;4.504;2023-01-25T13:53:54;2.50;79.10
10192;DHT22;17580;50.850;4.504;2023-01-25T13:56:29;2.40;79.10
10192;DHT22;17580;50.850;4.504;2023-01-25T13:58:56;2.40;79.70
10192;DHT22;17580;50.850;4.504;2023-01-25T14:01:24;2.50;80.00
10192;DHT22;17580;50.850;4.504;2023-01-25T14:03:54;2.40;78.30
10192;DHT22;17580;50.850;4.504;2023-01-25T14:06:27;2.30;79.70
10192;DHT22;17580;50.850;4.504;2023-01-25T14:08:58;2.40;79.50
10192;DHT22;17580;50.850;4.504;2023-01-25T14:11:29;2.50;81.30
10192;DHT22;17580;50.850;4.504;2023-01-25T14:13:59;2.50;79.20
10192;DHT22;17580;50.850;4.504;2023-01-25T14:16:27;2.60;78.20
10192;DHT22;17580;50.850;4.504;2023-01-25T14:18:56;2.40;79.20
10192;DHT22;17580;50.850;4.504;2023-01-25T14:21:25;2.50;78.70
10192;DHT22;17580;50.850;4.504;2023-01-25T14:23:52;2.30;79.40
10192;DHT22;17580;50.850;4.504;2023-01-25T14:26:21;2.30;79.20
10192;DHT22;17580;50.850;4.504;2023-01-25T14:28:51;2.30;80.70
10192;DHT22;17580;50.850;4.504;2023-01-25T14:31:21;2.30;80.60
10192;DHT22;17580;50.850;4.504;2023-01-25T14:33:49;2.40;81.40
10192;DHT22;17580;50.850;4.504;2023-01-25T14:36:25;2.40;79.70
10192;DHT22;17580;50.850;4.504;2023-01-25T14:38:53;2.30;80.40
10192;DHT22;17580;50.850;4.504;2023-01-25T14:41:25;2.30;81.60
10192;DHT22;17580;50.850;4.504;2023-01-25T14:43:54;2.40;80.90
10192;DHT22;17580;50.850;4.504;2023-01-25T14:46:24;2.30;79.40
10192;DHT22;17580;50.850;4.504;2023-01-25T14:49:13;2.20;80.80
10192;DHT22;17580;50.850;4.504;2023-01-25T14:51:44;2.30;81.50
10192;DHT22;17580;50.850;4.504;2023-01-25T14:54:15;2.30;81.60
10192;DHT22;17580;50.850;4.504;2023-01-25T14:56:44;2.40;82.70
10192;DHT22;17580;50.850;4.504;2023-01-25T14:59:31;2.40;80.80
10192;DHT22;17580;50.850;4.504;2023-01-25T15:02:01;2.30;81.10
10192;DHT22;17580;50.850;4.504;2023-01-25T15:04:29;2.30;82.00
10192;DHT22;17580;50.850;4.504;2023-01-25T15:06:57;2.20;80.30
10192;DHT22;17580;50.850;4.504;2023-01-25T15:09:39;2.20;81.10
10192;DHT22;17580;50.850;4.504;2023-01-25T15:12:26;2.20;81.90
10192;DHT22;17580;50.850;4.504;2023-01-25T15:14:55;2.30;80.90
10192;DHT22;17580;50.850;4.504;2023-01-25T15:17:37;2.30;80.60
10192;DHT22;17580;50.850;4.504;2023-01-25T15:20:05;2.30;81.50
10192;DHT22;17580;50.850;4.504;2023-01-25T15:22:34;2.20;81.50
10192;DHT22;17580;50.850;4.504;2023-01-25T15:25:00;2.10;81.00
10192;DHT22;17580;50.850;4.504;2023-01-25T15:27:27;2.10;81.20
10192;DHT22;17580;50.850;4.504;2023-01-25T15:29:54;2.10;81.80
10192;DHT22;17580;50.850;4.504;2023-01-25T15:32:22;2.20;82.50
10192;DHT22;17580;50.850;4.504;2023-01-25T15:34:49;2.10;80.90
10192;DHT22;17580;50.850;4.504;2023-01-25T15:37:16;1.90;80.60
10192;DHT22;17580;50.850;4.504;2023-01-25T15:39:44;1.90;81.40
10192;DHT22;17580;50.850;4.504;2023-01-25T15:42:11;1.90;82.30
10192;DHT22;17580;50.850;4.504;2023-01-25T15:44:38;1.80;81.00
10192;DHT22;17580;50.850;4.504;2023-01-25T15:47:05;1.80;81.60
10192;DHT22;17580;50.850;4.504;2023-01-25T15:49:32;1.70;82.00
10192;DHT22;17580;50.850;4.504;2023-01-25T15:52:04;1.70;83.30
10192;DHT22;17580;50.850;4.504;2023-01-25T15:54:31;1.70;82.60
10192;DHT22;17580;50.850;4.504;2023-01-25T15:56:59;1.70;83.00
10192;DHT22;17580;50.850;4.504;2023-01-25T15:59:26;1.80;82.20
10192;DHT22;17580;50.850;4.504;2023-01-25T16:01:54;1.70;82.70
10192;DHT22;17580;50.850;4.504;2023-01-25T16:04:21;1.70;82.00
10192;DHT22;17580;50.850;4.504;2023-01-25T16:06:50;1.70;82.40
10192;DHT22;17580;50.850;4.504;2023-01-25T16:09:20;1.60;81.70
10192;DHT22;17580;50.850;4.504;2023-01-25T16:11:49;1.60;81.40
10192;DHT22;17580;50.850;4.504;2023-01-25T16:14:18;1.60;81.50
10192;DHT22;17580;50.850;4.504;2023-01-25T16:16:47;1.50;82.20
10192;DHT22;17580;50.850;4.504;2023-01-25T16:19:17;1.50;82.30